sensor_id;sensor_type;location;lat;lon;timestamp;pressure;altitude;pressure_sealevel;temperature;humidity
42771;BME280;28426;42.872;25.314;2023-02-02T00:00:55;96951.53;;;-4.03;85.50
42771;BME280;28426;42.872;25.314;2023-02-02T00:03:26;96958.13;;;-3.97;91.76
42771;BME280;28426;42.872;25.314;2023-02-02T00:05:57;96953.59;;;-3.81;91.44
42771;BME280;28426;42.872;25.314;2023-02-02T00:08:30;96953.06;;;-3.58;93.54
42771;BME280;28426;42.872;25.314;2023-02-02T00:11:02;96960.13;;;-3.60;83.67
42771;BME280;28426;42.872;25.314;2023-02-02T00:13:33;96959.94;;;-3.85;82.01
42771;BME280;28426;42.872;25.314;2023-02-02T00:16:35;96959.81;;;-4.11;82.94
42771;BME280;28426;42.872;25.314;2023-02-02T00:19:07;96961.66;;;-4.26;84.10
42771;BME280;28426;42.872;25.314;2023-02-02T00:21:38;96968.06;;;-4.31;85.27
42771;BME280;28426;42.872;25.314;2023-02-02T00:24:10;96974.31;;;-4.34;85.17
42771;BME280;28426;42.872;25.314;2023-02-02T00:26:42;96977.00;;;-4.36;85.64
42771;BME280;28426;42.872;25.314;2023-02-02T00:29:15;96983.25;;;-4.38;85.84
42771;BME280;28426;42.872;25.314;2023-02-02T00:31:49;96977.84;;;-4.35;88.27
42771;BME280;28426;42.872;25.314;2023-02-02T00:34:21;96996.13;;;-4.08;91.10
42771;BME280;28426;42.872;25.314;2023-02-02T00:36:52;96997.94;;;-3.81;91.13
42771;BME280;28426;42.872;25.314;2023-02-02T00:39:24;96974.38;;;-3.51;90.17
42771;BME280;28426;42.872;25.314;2023-02-02T00:41:56;96977.16;;;-3.27;90.09
42771;BME280;28426;42.872;25.314;2023-02-02T00:44:26;96960.16;;;-3.07;88.94
42771;BME280;28426;42.872;25.314;2023-02-02T00:47:12;96961.91;;;-2.94;88.02
42771;BME280;28426;42.872;25.314;2023-02-02T00:49:43;96957.00;;;-2.86;87.42
42771;BME280;28426;42.872;25.314;2023-02-02T00:52:13;96951.38;;;-2.80;86.78
42771;BME280;28426;42.872;25.314;2023-02-02T00:54:44;96955.66;;;-2.79;86.23
42771;BME280;28426;42.872;25.314;2023-02-02T00:57:15;96954.91;;;-2.81;85.33
42771;BME280;28426;42.872;25.314;2023-02-02T00:59:45;96951.06;;;-2.88;85.36
42771;BME280;28426;42.872;25.314;2023-02-02T01:02:20;96952.31;;;-2.94;86.36
42771;BME280;28426;42.872;25.314;2023-02-02T01:04:51;96954.84;;;-2.92;88.29
42771;BME280;28426;42.872;25.314;2023-02-02T01:07:22;96948.47;;;-2.88;89.24
42771;BME280;28426;42.872;25.314;2023-02-02T01:09:53;96951.59;;;-2.83;89.21
42771;BME280;28426;42.872;25.314;2023-02-02T01:12:23;96943.75;;;-2.83;88.04
42771;BME280;28426;42.872;25.314;2023-02-02T01:14:54;96944.59;;;-2.69;92.11
42771;BME280;28426;42.872;25.314;2023-02-02T01:17:27;96942.06;;;-2.58;91.89
42771;BME280;28426;42.872;25.314;2023-02-02T01:19:58;96947.19;;;-2.43;91.47
42771;BME280;28426;42.872;25.314;2023-02-02T01:22:29;96939.41;;;-2.32;91.64
42771;BME280;28426;42.872;25.314;2023-02-02T01:25:00;96928.91;;;-2.19;91.12
42771;BME280;28426;42.872;25.314;2023-02-02T01:27:31;96929.69;;;-2.05;90.83
42771;BME280;28426;42.872;25.314;2023-02-02T01:30:02;96935.69;;;-1.92;90.75
42771;BME280;28426;42.872;25.314;2023-02-02T01:32:35;96929.69;;;-1.81;90.32
42771;BME280;28426;42.872;25.314;2023-02-02T01:35:06;96919.41;;;-1.71;90.19
42771;BME280;28426;42.872;25.314;2023-02-02T01:37:38;96922.19;;;-1.61;89.59
42771;BME280;28426;42.872;25.314;2023-02-02T01:40:10;96926.63;;;-1.50;89.74
42771;BME280;28426;42.872;25.314;2023-02-02T01:42:41;96924.41;;;-1.43;89.09
42771;BME280;28426;42.872;25.314;2023-02-02T01:45:24;96913.25;;;-1.34;88.71
42771;BME280;28426;42.872;25.314;2023-02-02T01:47:59;96915.16;;;-1.25;88.59
42771;BME280;28426;42.872;25.314;2023-02-02T01:50:32;96916.34;;;-1.17;88.19
42771;BME280;28426;42.872;25.314;2023-02-02T01:53:04;96903.16;;;-1.16;88.00
42771;BME280;28426;42.872;25.314;2023-02-02T01:55:38;96919.00;;;-1.06;87.74
42771;BME280;28426;42.872;25.314;2023-02-02T01:58:15;96925.56;;;-1.00;87.65
42771;BME280;28426;42.872;25.314;2023-02-02T02:00:47;96913.91;;;-0.96;87.62
42771;BME280;28426;42.872;25.314;2023-02-02T02:03:24;96919.84;;;-0.94;87.04
42771;BME280;28426;42.872;25.314;2023-02-02T02:05:58;96905.47;;;-0.88;86.90
42771;BME280;28426;42.872;25.314;2023-02-02T02:08:32;96905.34;;;-0.87;86.68
42771;BME280;28426;42.872;25.314;2023-02-02T02:11:04;96914.75;;;-0.84;86.50
42771;BME280;28426;42.872;25.314;2023-02-02T02:13:37;96904.28;;;-0.84;86.22
42771;BME280;28426;42.872;25.314;2023-02-02T02:16:27;96906.88;;;-0.84;86.29
42771;BME280;28426;42.872;25.314;2023-02-02T02:19:19;96895.44;;;-0.83;85.94
42771;BME280;28426;42.872;25.314;2023-02-02T02:22:00;96900.69;;;-0.83;85.68
42771;BME280;28426;42.872;25.314;2023-02-02T02:25:13;96888.56;;;-0.84;85.88
42771;BME280;28426;42.872;25.314;2023-02-02T02:28:19;96868.16;;;-1.03;85.35
42771;BME280;28426;42.872;25.314;2023-02-02T02:31:26;96892.34;;;-0.88;85.15
42771;BME280;28426;42.872;25.314;2023-02-02T02:34:08;96891.63;;;-0.90;85.09
42771;BME280;28426;42.872;25.314;2023-02-02T02:36:46;96887.34;;;-0.92;85.08
42771;BME280;28426;42.872;25.314;2023-02-02T02:39:23;96896.38;;;-0.96;84.68
42771;BME280;28426;42.872;25.314;2023-02-02T02:41:59;96897.47;;;-0.98;84.59
42771;BME280;28426;42.872;25.314;2023-02-02T02:44:32;96899.25;;;-0.99;84.93
42771;BME280;28426;42.872;25.314;2023-02-02T02:47:05;96893.28;;;-1.01;84.60
42771;BME280;28426;42.872;25.314;2023-02-02T02:49:44;96890.78;;;-1.02;84.90
42771;BME280;28426;42.872;25.314;2023-02-02T02:52:15;96885.81;;;-1.06;84.68
42771;BME280;28426;42.872;25.314;2023-02-02T02:54:48;96886.88;;;-1.08;84.68
42771;BME280;28426;42.872;25.314;2023-02-02T02:57:48;96895.66;;;-1.09;84.26
42771;BME280;28426;42.872;25.314;2023-02-02T03:00:38;96891.59;;;-1.13;84.50
42771;BME280;28426;42.872;25.314;2023-02-02T03:03:18;96892.56;;;-1.14;84.45
42771;BME280;28426;42.872;25.314;2023-02-02T03:06:01;96898.03;;;-1.17;84.46
42771;BME280;28426;42.872;25.314;2023-02-02T03:08:38;96906.84;;;-1.19;84.35
42771;BME280;28426;42.872;25.314;2023-02-02T03:11:10;96900.91;;;-1.21;84.31
42771;BME280;28426;42.872;25.314;2023-02-02T03:13:44;96904.47;;;-1.22;84.68
42771;BME280;28426;42.872;25.314;2023-02-02T03:16:15;96905.41;;;-1.23;84.60
42771;BME280;28426;42.872;25.314;2023-02-02T03:18:46;96908.13;;;-1.24;84.48
42771;BME280;28426;42.872;25.314;2023-02-02T03:21:19;96907.31;;;-1.25;84.42
42771;BME280;28426;42.872;25.314;2023-02-02T03:23:50;96907.53;;;-1.28;84.53
42771;BME280;28426;42.872;25.314;2023-02-02T03:26:21;96911.94;;;-1.28;84.53
42771;BME280;28426;42.872;25.314;2023-02-02T03:28:53;96901.81;;;-1.33;84.21
42771;BME280;28426;42.872;25.314;2023-02-02T03:31:25;96899.19;;;-1.33;84.47
42771;BME280;28426;42.872;25.314;2023-02-02T03:33:57;96906.09;;;-1.32;84.33
42771;BME280;28426;42.872;25.314;2023-02-02T03:36:30;96899.19;;;-1.33;84.30
42771;BME280;28426;42.872;25.314;2023-02-02T03:39:00;96895.72;;;-1.34;84.40
42771;BME280;28426;42.872;25.314;2023-02-02T03:41:31;96895.25;;;-1.39;84.40
42771;BME280;28426;42.872;25.314;2023-02-02T03:44:02;96905.38;;;-1.34;84.73
42771;BME280;28426;42.872;25.314;2023-02-02T03:46:32;96896.69;;;-1.35;84.70
42771;BME280;28426;42.872;25.314;2023-02-02T03:49:03;96898.50;;;-1.35;84.73
42771;BME280;28426;42.872;25.314;2023-02-02T03:51:36;96896.91;;;-1.38;84.53
42771;BME280;28426;42.872;25.314;2023-02-02T03:54:07;96895.25;;;-1.39;84.64
42771;BME280;28426;42.872;25.314;2023-02-02T03:56:38;96892.63;;;-1.39;84.54
42771;BME280;28426;42.872;25.314;2023-02-02T03:59:08;96892.25;;;-1.46;84.31
42771;BME280;28426;42.872;25.314;2023-02-02T04:01:39;96897.16;;;-1.41;84.77
42771;BME280;28426;42.872;25.314;2023-02-02T04:04:10;96892.75;;;-1.40;84.72
42771;BME280;28426;42.872;25.314;2023-02-02T04:06:43;96888.47;;;-1.41;84.98
42771;BME280;28426;42.872;25.314;2023-02-02T04:09:13;96886.56;;;-1.39;84.77
42771;BME280;28426;42.872;25.314;2023-02-02T04:11:44;96890.00;;;-1.39;85.11
42771;BME280;28426;42.872;25.314;2023-02-02T04:14:15;96891.56;;;-1.36;85.32
42771;BME280;28426;42.872;25.314;2023-02-02T04:16:45;96879.16;;;-1.46;85.47
42771;BME280;28426;42.872;25.314;2023-02-02T04:19:16;96899.91;;;-1.31;85.72
42771;BME280;28426;42.872;25.314;2023-02-02T04:21:49;96904.91;;;-1.28;85.58
42771;BME280;28426;42.872;25.314;2023-02-02T04:24:20;96908.13;;;-1.24;85.67
42771;BME280;28426;42.872;25.314;2023-02-02T04:26:51;96908.75;;;-1.21;85.92
42771;BME280;28426;42.872;25.314;2023-02-02T04:29:21;96904.94;;;-1.16;85.98
42771;BME280;28426;42.872;25.314;2023-02-02T04:31:53;96903.78;;;-1.12;86.06
42771;BME280;28426;42.872;25.314;2023-02-02T04:34:24;96906.97;;;-1.09;86.28
42771;BME280;28426;42.872;25.314;2023-02-02T04:36:58;96897.94;;;-1.04;86.02
42771;BME280;28426;42.872;25.314;2023-02-02T04:39:28;96906.38;;;-1.01;85.97
42771;BME280;28426;42.872;25.314;2023-02-02T04:41:59;96897.47;;;-0.98;86.06
42771;BME280;28426;42.872;25.314;2023-02-02T04:44:30;96898.09;;;-0.95;85.99
42771;BME280;28426;42.872;25.314;2023-02-02T04:47:00;96892.69;;;-0.93;85.87
42771;BME280;28426;42.872;25.314;2023-02-02T04:49:31;96887.59;;;-0.95;85.83
42771;BME280;28426;42.872;25.314;2023-02-02T04:52:04;96899.38;;;-0.89;86.03
42771;BME280;28426;42.872;25.314;2023-02-02T04:54:35;96902.84;;;-0.88;85.92
42771;BME280;28426;42.872;25.314;2023-02-02T04:57:06;96904.50;;;-0.87;85.58
42771;BME280;28426;42.872;25.314;2023-02-02T04:59:36;96904.50;;;-0.87;85.59
42771;BME280;28426;42.872;25.314;2023-02-02T05:02:08;96909.03;;;-0.89;85.94
42771;BME280;28426;42.872;25.314;2023-02-02T05:04:39;96906.88;;;-0.84;85.88
42771;BME280;28426;42.872;25.314;2023-02-02T05:07:12;96907.69;;;-0.84;85.94
42771;BME280;28426;42.872;25.314;2023-02-02T05:09:43;96905.69;;;-0.80;85.43
42771;BME280;28426;42.872;25.314;2023-02-02T05:12:13;96910.09;;;-0.81;87.52
42771;BME280;28426;42.872;25.314;2023-02-02T05:14:44;96898.75;;;-1.04;82.16
42771;BME280;28426;42.872;25.314;2023-02-02T05:17:14;96906.41;;;-1.48;79.30
42771;BME280;28426;42.872;25.314;2023-02-02T05:19:45;96903.50;;;-1.92;79.87
42771;BME280;28426;42.872;25.314;2023-02-02T05:22:18;96910.03;;;-2.35;79.49
42771;BME280;28426;42.872;25.314;2023-02-02T05:24:49;96913.03;;;-2.66;79.82
42771;BME280;28426;42.872;25.314;2023-02-02T05:27:19;96920.88;;;-2.92;80.79
42771;BME280;28426;42.872;25.314;2023-02-02T05:29:50;96914.09;;;-3.08;81.98
42771;BME280;28426;42.872;25.314;2023-02-02T05:32:21;96925.88;;;-3.02;90.13
42771;BME280;28426;42.872;25.314;2023-02-02T05:34:51;96919.50;;;-2.85;89.24
42771;BME280;28426;42.872;25.314;2023-02-02T05:37:24;96923.16;;;-2.61;89.46
42771;BME280;28426;42.872;25.314;2023-02-02T05:39:55;96929.91;;;-2.33;89.46
42771;BME280;28426;42.872;25.314;2023-02-02T05:42:25;96932.44;;;-2.07;88.26
42771;BME280;28426;42.872;25.314;2023-02-02T05:44:56;96941.84;;;-1.80;87.22
42771;BME280;28426;42.872;25.314;2023-02-02T05:47:27;96939.81;;;-1.52;86.44
42771;BME280;28426;42.872;25.314;2023-02-02T05:49:57;96953.69;;;-1.27;85.17
42771;BME280;28426;42.872;25.314;2023-02-02T05:52:33;96945.31;;;-1.08;84.88
42771;BME280;28426;42.872;25.314;2023-02-02T05:55:05;96945.97;;;-0.81;83.71
42771;BME280;28426;42.872;25.314;2023-02-02T05:57:36;96939.31;;;-0.62;83.68
42771;BME280;28426;42.872;25.314;2023-02-02T06:00:08;96943.81;;;-0.42;81.72
42771;BME280;28426;42.872;25.314;2023-02-02T06:02:39;96953.81;;;-0.24;81.36
42771;BME280;28426;42.872;25.314;2023-02-02T06:05:10;96950.94;;;-0.09;80.07
42771;BME280;28426;42.872;25.314;2023-02-02T06:07:43;96948.06;;;0.05;79.71
42771;BME280;28426;42.872;25.314;2023-02-02T06:10:14;96954.00;;;0.19;79.68
42771;BME280;28426;42.872;25.314;2023-02-02T06:12:44;96954.66;;;0.32;78.78
42771;BME280;28426;42.872;25.314;2023-02-02T06:15:15;96934.50;;;0.33;78.50
42771;BME280;28426;42.872;25.314;2023-02-02T06:17:46;96954.59;;;0.55;77.29
42771;BME280;28426;42.872;25.314;2023-02-02T06:20:17;96961.59;;;0.66;76.86
42771;BME280;28426;42.872;25.314;2023-02-02T06:22:51;96955.69;;;0.74;76.26
42771;BME280;28426;42.872;25.314;2023-02-02T06:25:21;96958.25;;;0.85;75.19
42771;BME280;28426;42.872;25.314;2023-02-02T06:27:54;96958.44;;;0.94;74.71
42771;BME280;28426;42.872;25.314;2023-02-02T06:30:25;96951.00;;;0.99;74.75
42771;BME280;28426;42.872;25.314;2023-02-02T06:32:58;96953.97;;;1.06;74.51
42771;BME280;28426;42.872;25.314;2023-02-02T06:35:29;96956.09;;;1.12;74.47
42771;BME280;28426;42.872;25.314;2023-02-02T06:38:03;96953.06;;;1.16;73.14
42771;BME280;28426;42.872;25.314;2023-02-02T06:40:33;96962.22;;;1.22;73.25
42771;BME280;28426;42.872;25.314;2023-02-02T06:43:04;96953.69;;;1.30;74.00
42771;BME280;28426;42.872;25.314;2023-02-02T06:45:35;96954.84;;;1.37;73.24
42771;BME280;28426;42.872;25.314;2023-02-02T06:48:06;96956.81;;;1.45;72.93
42771;BME280;28426;42.872;25.314;2023-02-02T06:50:37;96958.78;;;1.53;72.24
42771;BME280;28426;42.872;25.314;2023-02-02T06:53:10;96954.66;;;1.60;71.96
42771;BME280;28426;42.872;25.314;2023-02-02T06:55:42;96932.22;;;1.56;69.26
42771;BME280;28426;42.872;25.314;2023-02-02T06:58:12;96951.41;;;1.78;70.14
42771;BME280;28426;42.872;25.314;2023-02-02T07:00:43;96960.16;;;1.88;70.79
42771;BME280;28426;42.872;25.314;2023-02-02T07:03:14;96963.69;;;1.99;70.37
42771;BME280;28426;42.872;25.314;2023-02-02T07:05:45;96961.19;;;2.07;70.52
42771;BME280;28426;42.872;25.314;2023-02-02T07:08:18;96959.13;;;2.11;70.18
42771;BME280;28426;42.872;25.314;2023-02-02T07:10:49;96960.53;;;2.15;70.67
42771;BME280;28426;42.872;25.314;2023-02-02T07:13:39;96966.47;;;2.17;69.91
42771;BME280;28426;42.872;25.314;2023-02-02T07:16:10;96969.66;;;2.20;70.30
42771;BME280;28426;42.872;25.314;2023-02-02T07:18:42;96962.22;;;2.26;69.79
42771;BME280;28426;42.872;25.314;2023-02-02T07:21:18;96965.53;;;2.28;69.19
42771;BME280;28426;42.872;25.314;2023-02-02T07:23:52;96968.59;;;2.33;68.63
42771;BME280;28426;42.872;25.314;2023-02-02T07:26:22;96958.47;;;2.38;69.02
42771;BME280;28426;42.872;25.314;2023-02-02T07:28:54;96957.13;;;2.54;69.79
42771;BME280;28426;42.872;25.314;2023-02-02T07:31:25;96964.03;;;2.74;69.20
42771;BME280;28426;42.872;25.314;2023-02-02T07:33:57;96959.31;;;2.98;69.36
42771;BME280;28426;42.872;25.314;2023-02-02T07:36:28;96968.44;;;3.23;68.71
42771;BME280;28426;42.872;25.314;2023-02-02T07:39:02;96965.91;;;3.42;67.31
42771;BME280;28426;42.872;25.314;2023-02-02T07:41:35;96963.91;;;3.53;66.89
42771;BME280;28426;42.872;25.314;2023-02-02T07:44:14;96959.56;;;3.62;65.11
42771;BME280;28426;42.872;25.314;2023-02-02T07:46:46;96968.06;;;3.66;65.05
42771;BME280;28426;42.872;25.314;2023-02-02T07:49:17;96973.72;;;3.71;64.43
42771;BME280;28426;42.872;25.314;2023-02-02T07:51:48;96974.50;;;3.82;64.80
42771;BME280;28426;42.872;25.314;2023-02-02T07:54:21;96960.66;;;3.98;65.45
42771;BME280;28426;42.872;25.314;2023-02-02T07:56:52;96961.09;;;4.21;65.62
42771;BME280;28426;42.872;25.314;2023-02-02T07:59:23;96967.91;;;4.42;65.31
42771;BME280;28426;42.872;25.314;2023-02-02T08:01:53;96958.22;;;4.61;65.10
42771;BME280;28426;42.872;25.314;2023-02-02T08:04:24;96955.41;;;4.80;64.86
42771;BME280;28426;42.872;25.314;2023-02-02T08:06:54;96959.69;;;5.00;65.18
42771;BME280;28426;42.872;25.314;2023-02-02T08:09:27;96958.47;;;5.12;63.29
42771;BME280;28426;42.872;25.314;2023-02-02T08:11:59;96958.38;;;5.22;62.79
42771;BME280;28426;42.872;25.314;2023-02-02T08:14:30;96958.91;;;5.26;59.90
42771;BME280;28426;42.872;25.314;2023-02-02T08:17:01;96965.06;;;5.34;59.65
42771;BME280;28426;42.872;25.314;2023-02-02T08:19:32;96956.69;;;5.47;61.12
42771;BME280;28426;42.872;25.314;2023-02-02T08:22:03;96963.94;;;5.72;58.86
42771;BME280;28426;42.872;25.314;2023-02-02T08:24:36;96943.00;;;5.87;58.71
42771;BME280;28426;42.872;25.314;2023-02-02T08:27:09;96953.59;;;6.22;55.83
42771;BME280;28426;42.872;25.314;2023-02-02T08:29:40;96959.13;;;6.45;55.51
42771;BME280;28426;42.872;25.314;2023-02-02T08:32:10;96964.63;;;6.69;57.12
42771;BME280;28426;42.872;25.314;2023-02-02T08:34:41;96956.53;;;6.87;52.35
42771;BME280;28426;42.872;25.314;2023-02-02T08:37:12;96954.03;;;7.02;53.75
42771;BME280;28426;42.872;25.314;2023-02-02T08:39:45;96964.13;;;7.15;53.04
42771;BME280;28426;42.872;25.314;2023-02-02T08:42:15;96951.03;;;7.30;53.58
42771;BME280;28426;42.872;25.314;2023-02-02T08:44:46;96957.16;;;7.47;53.91
42771;BME280;28426;42.872;25.314;2023-02-02T08:47:36;96944.66;;;7.64;53.53
42771;BME280;28426;42.872;25.314;2023-02-02T08:50:09;96951.09;;;7.78;52.58
42771;BME280;28426;42.872;25.314;2023-02-02T08:52:40;96941.91;;;7.89;52.27
42771;BME280;28426;42.872;25.314;2023-02-02T08:55:13;96934.91;;;7.96;51.34
42771;BME280;28426;42.872;25.314;2023-02-02T08:57:44;96933.88;;;8.06;51.02
42771;BME280;28426;42.872;25.314;2023-02-02T09:00:16;96922.53;;;8.12;49.72
42771;BME280;28426;42.872;25.314;2023-02-02T09:02:49;96929.66;;;8.20;49.67
42771;BME280;28426;42.872;25.314;2023-02-02T09:05:19;96919.50;;;8.23;48.66
42771;BME280;28426;42.872;25.314;2023-02-02T09:07:51;96914.84;;;8.25;48.95
42771;BME280;28426;42.872;25.314;2023-02-02T09:10:24;96924.63;;;8.33;47.54
42771;BME280;28426;42.872;25.314;2023-02-02T09:12:58;96925.44;;;8.34;47.47
42771;BME280;28426;42.872;25.314;2023-02-02T09:15:29;96924.44;;;8.35;46.73
42771;BME280;28426;42.872;25.314;2023-02-02T09:18:00;96927.09;;;8.35;46.29
42771;BME280;28426;42.872;25.314;2023-02-02T09:20:30;96911.97;;;8.35;47.73
42771;BME280;28426;42.872;25.314;2023-02-02T09:23:01;96916.09;;;8.38;46.05
42771;BME280;28426;42.872;25.314;2023-02-02T09:25:34;96912.44;;;8.39;46.56
42771;BME280;28426;42.872;25.314;2023-02-02T09:28:04;96906.78;;;8.42;44.75
42771;BME280;28426;42.872;25.314;2023-02-02T09:30:35;96913.72;;;8.43;45.08
42771;BME280;28426;42.872;25.314;2023-02-02T09:33:06;96905.75;;;8.43;44.08
42771;BME280;28426;42.872;25.314;2023-02-02T09:35:36;96900.63;;;8.42;44.75
42771;BME280;28426;42.872;25.314;2023-02-02T09:38:07;96910.91;;;8.45;46.17
42771;BME280;28426;42.872;25.314;2023-02-02T09:40:40;96907.06;;;8.47;43.82
42771;BME280;28426;42.872;25.314;2023-02-02T09:43:24;96907.38;;;8.53;45.82
42771;BME280;28426;42.872;25.314;2023-02-02T09:46:04;96897.59;;;8.53;43.62
42771;BME280;28426;42.872;25.314;2023-02-02T09:48:47;96907.72;;;8.58;45.15
42771;BME280;28426;42.872;25.314;2023-02-02T09:51:22;96881.47;;;8.46;44.64
42771;BME280;28426;42.872;25.314;2023-02-02T09:53:58;96897.06;;;8.58;43.44
42771;BME280;28426;42.872;25.314;2023-02-02T09:56:38;96893.56;;;8.57;42.94
42771;BME280;28426;42.872;25.314;2023-02-02T09:59:15;96893.56;;;8.57;43.02
42771;BME280;28426;42.872;25.314;2023-02-02T10:01:54;96885.41;;;8.59;43.77
42771;BME280;28426;42.872;25.314;2023-02-02T10:04:28;96886.34;;;8.66;44.60
42771;BME280;28426;42.872;25.314;2023-02-02T10:07:07;96875.19;;;8.71;42.73
42771;BME280;28426;42.872;25.314;2023-02-02T10:09:43;96866.00;;;8.73;42.79
42771;BME280;28426;42.872;25.314;2023-02-02T10:12:26;96845.84;;;8.79;44.15
42771;BME280;28426;42.872;25.314;2023-02-02T10:15:02;96856.59;;;8.86;44.55
42771;BME280;28426;42.872;25.314;2023-02-02T10:17:44;96837.25;;;8.92;41.18
42771;BME280;28426;42.872;25.314;2023-02-02T10:20:29;96837.06;;;8.94;43.13
42771;BME280;28426;42.872;25.314;2023-02-02T10:23:11;96834.22;;;8.95;40.43
42771;BME280;28426;42.872;25.314;2023-02-02T10:25:48;96835.88;;;8.96;42.07
42771;BME280;28426;42.872;25.314;2023-02-02T10:28:35;96827.09;;;8.96;41.12
42771;BME280;28426;42.872;25.314;2023-02-02T10:31:17;96835.53;;;8.99;42.23
42771;BME280;28426;42.872;25.314;2023-02-02T10:34:00;96831.31;;;9.05;42.56
42771;BME280;28426;42.872;25.314;2023-02-02T10:36:41;96828.09;;;9.10;42.00
42771;BME280;28426;42.872;25.314;2023-02-02T10:39:20;96817.44;;;9.10;40.77
42771;BME280;28426;42.872;25.314;2023-02-02T10:42:01;96796.41;;;9.00;41.11
42771;BME280;28426;42.872;25.314;2023-02-02T10:44:44;96810.47;;;9.09;39.16
42771;BME280;28426;42.872;25.314;2023-02-02T10:47:22;96804.31;;;9.08;40.24
42771;BME280;28426;42.872;25.314;2023-02-02T10:50:01;96800.09;;;9.14;40.30
42771;BME280;28426;42.872;25.314;2023-02-02T10:52:33;96784.78;;;9.16;40.93
42771;BME280;28426;42.872;25.314;2023-02-02T10:55:09;96784.03;;;9.22;39.82
42771;BME280;28426;42.872;25.314;2023-02-02T10:57:59;96785.78;;;9.30;41.08
42771;BME280;28426;42.872;25.314;2023-02-02T11:00:37;96780.53;;;9.37;39.24
42771;BME280;28426;42.872;25.314;2023-02-02T11:03:11;96781.56;;;9.36;40.12
42771;BME280;28426;42.872;25.314;2023-02-02T11:05:42;96778.31;;;9.40;40.71
42771;BME280;28426;42.872;25.314;2023-02-02T11:08:29;96758.78;;;9.33;40.50
42771;BME280;28426;42.872;25.314;2023-02-02T11:11:10;96776.13;;;9.44;37.85
42771;BME280;28426;42.872;25.314;2023-02-02T11:13:43;96773.66;;;9.42;39.69
42771;BME280;28426;42.872;25.314;2023-02-02T11:16:24;96776.47;;;9.41;38.80
42771;BME280;28426;42.872;25.314;2023-02-02T11:19:25;96765.28;;;9.46;38.96
42771;BME280;28426;42.872;25.314;2023-02-02T11:21:58;96766.84;;;9.55;39.77
42771;BME280;28426;42.872;25.314;2023-02-02T11:24:33;96754.88;;;9.66;39.30
42771;BME280;28426;42.872;25.314;2023-02-02T11:27:07;96748.00;;;9.78;40.49
42771;BME280;28426;42.872;25.314;2023-02-02T11:29:45;96743.03;;;9.90;39.18
42771;BME280;28426;42.872;25.314;2023-02-02T11:32:25;96738.38;;;9.99;38.53
42771;BME280;28426;42.872;25.314;2023-02-02T11:35:16;96726.34;;;10.03;37.92
42771;BME280;28426;42.872;25.314;2023-02-02T11:37:56;96724.22;;;9.99;34.64
42771;BME280;28426;42.872;25.314;2023-02-02T11:40:33;96722.03;;;10.02;37.85
42771;BME280;28426;42.872;25.314;2023-02-02T11:43:15;96720.34;;;10.01;38.47
42771;BME280;28426;42.872;25.314;2023-02-02T11:45:53;96715.41;;;9.98;38.08
42771;BME280;28426;42.872;25.314;2023-02-02T11:48:34;96720.09;;;9.96;38.79
42771;BME280;28426;42.872;25.314;2023-02-02T11:51:08;96704.50;;;9.93;37.90
42771;BME280;28426;42.872;25.314;2023-02-02T11:54:00;96708.63;;;9.96;38.03
42771;BME280;28426;42.872;25.314;2023-02-02T11:56:35;96694.66;;;9.93;38.31
42771;BME280;28426;42.872;25.314;2023-02-02T11:59:26;96674.53;;;9.91;36.30
42771;BME280;28426;42.872;25.314;2023-02-02T12:02:27;96683.25;;;10.00;37.39
42771;BME280;28426;42.872;25.314;2023-02-02T12:05:35;96682.66;;;10.04;38.28
42771;BME280;28426;42.872;25.314;2023-02-02T12:08:08;96675.56;;;10.12;39.16
42771;BME280;28426;42.872;25.314;2023-02-02T12:10:43;96672.94;;;10.18;39.39
42771;BME280;28426;42.872;25.314;2023-02-02T12:13:26;96676.03;;;10.22;39.04
42771;BME280;28426;42.872;25.314;2023-02-02T12:16:10;96673.59;;;10.27;39.74
42771;BME280;28426;42.872;25.314;2023-02-02T12:18:53;96674.88;;;10.31;37.79
42771;BME280;28426;42.872;25.314;2023-02-02T12:21:35;96674.63;;;10.26;36.46
42771;BME280;28426;42.872;25.314;2023-02-02T12:24:23;96660.88;;;10.23;36.67
42771;BME280;28426;42.872;25.314;2023-02-02T12:27:16;96661.44;;;10.18;37.48
42771;BME280;28426;42.872;25.314;2023-02-02T12:30:07;96666.34;;;10.14;37.53
42771;BME280;28426;42.872;25.314;2023-02-02T12:32:55;96680.81;;;10.05;37.66
42771;BME280;28426;42.872;25.314;2023-02-02T12:38:50;96686.59;;;9.87;37.27
42771;BME280;28426;42.872;25.314;2023-02-02T12:41:35;96708.81;;;9.72;38.06
42771;BME280;28426;42.872;25.314;2023-02-02T12:44:15;96809.28;;;9.57;39.03
42771;BME280;28426;42.872;25.314;2023-02-02T12:47:04;96834.53;;;9.31;41.83
42771;BME280;28426;42.872;25.314;2023-02-02T12:49:50;96850.47;;;9.00;43.72
42771;BME280;28426;42.872;25.314;2023-02-02T12:52:36;96867.38;;;8.69;45.49
42771;BME280;28426;42.872;25.314;2023-02-02T12:55:22;96873.56;;;8.38;46.92
42771;BME280;28426;42.872;25.314;2023-02-02T12:58:01;96875.53;;;8.13;48.59
42771;BME280;28426;42.872;25.314;2023-02-02T13:00:52;96866.28;;;7.77;50.40
42771;BME280;28426;42.872;25.314;2023-02-02T13:03:30;96848.16;;;7.40;51.28
42771;BME280;28426;42.872;25.314;2023-02-02T13:06:20;96853.53;;;7.15;52.87
42771;BME280;28426;42.872;25.314;2023-02-02T13:08:57;96845.44;;;6.92;53.28
42771;BME280;28426;42.872;25.314;2023-02-02T13:11:37;96815.63;;;6.73;55.28
42771;BME280;28426;42.872;25.314;2023-02-02T13:14:15;96810.38;;;6.57;55.85
42771;BME280;28426;42.872;25.314;2023-02-02T13:16:50;96808.69;;;6.47;56.04
42771;BME280;28426;42.872;25.314;2023-02-02T13:19:25;96805.22;;;6.47;57.93
42771;BME280;28426;42.872;25.314;2023-02-02T13:21:59;96812.84;;;6.41;57.92
42771;BME280;28426;42.872;25.314;2023-02-02T13:24:35;96819.47;;;6.37;58.16
42771;BME280;28426;42.872;25.314;2023-02-02T13:27:14;96822.44;;;6.34;59.01
42771;BME280;28426;42.872;25.314;2023-02-02T13:29:50;96838.50;;;6.33;58.59
42771;BME280;28426;42.872;25.314;2023-02-02T13:32:26;96840.66;;;6.29;59.32
42771;BME280;28426;42.872;25.314;2023-02-02T13:35:02;96845.28;;;6.19;59.39
42771;BME280;28426;42.872;25.314;2023-02-02T13:37:38;96863.84;;;6.19;59.68
42771;BME280;28426;42.872;25.314;2023-02-02T13:40:21;96864.16;;;6.15;60.07